Bayside, California
Current Conditions -  °F | °C
As of 7:53 AM on Friday 21 Nov 2014 (Local Time) from KACV Reporting Station
Light Rain Light Rain  
Wind Chill: 54°   Ceiling: 9000
Heat Index: 54°   Visibility: 10mi
Dew Point: 46°   Wind: 13mph
Humidity: 75%   Direction: 130°SE
Pressure: 30"   Gusts: NA
Location:  40.84°N, 124.06°W
Report Text: KACV 211553Z AUTO 13011KT 10SM -RA OVC090 12/08 A3000 RMK AO2 RAB46 SLP165 P0000 T01220078
Loading
Personal Weather Stations






























Interactive Weather Map New forecast layout! Learn more

10-Day Weather Forecast

Advertisements
Track Severe Weather on mobile